sensor_id;sensor_type;location;lat;lon;timestamp;P1;durP1;ratioP1;P2;durP2;ratioP2
44766;SDS011;30487;48.716;9.272;2023-05-24T00:01:14;4.55;;;2.30;;
44766;SDS011;30487;48.716;9.272;2023-05-24T00:03:40;3.78;;;2.10;;
44766;SDS011;30487;48.716;9.272;2023-05-24T00:06:10;5.88;;;2.30;;
44766;SDS011;30487;48.716;9.272;2023-05-24T00:08:36;4.32;;;2.20;;
44766;SDS011;30487;48.716;9.272;2023-05-24T00:11:01;4.70;;;2.53;;
44766;SDS011;30487;48.716;9.272;2023-05-24T00:13:27;5.72;;;2.35;;
44766;SDS011;30487;48.716;9.272;2023-05-24T00:15:53;6.40;;;2.65;;
44766;SDS011;30487;48.716;9.272;2023-05-24T00:18:18;5.65;;;2.10;;
44766;SDS011;30487;48.716;9.272;2023-05-24T00:20:44;6.00;;;2.67;;
44766;SDS011;30487;48.716;9.272;2023-05-24T00:23:09;5.25;;;2.42;;
44766;SDS011;30487;48.716;9.272;2023-05-24T00:25:35;5.95;;;2.13;;
44766;SDS011;30487;48.716;9.272;2023-05-24T00:28:01;6.90;;;2.45;;
44766;SDS011;30487;48.716;9.272;2023-05-24T00:30:26;4.30;;;2.28;;
44766;SDS011;30487;48.716;9.272;2023-05-24T00:32:52;6.10;;;2.30;;
44766;SDS011;30487;48.716;9.272;2023-05-24T00:35:17;4.95;;;2.17;;
44766;SDS011;30487;48.716;9.272;2023-05-24T00:37:43;5.03;;;2.60;;
44766;SDS011;30487;48.716;9.272;2023-05-24T00:40:12;5.00;;;2.53;;
44766;SDS011;30487;48.716;9.272;2023-05-24T00:42:37;5.25;;;2.40;;
44766;SDS011;30487;48.716;9.272;2023-05-24T00:45:03;3.90;;;2.00;;
44766;SDS011;30487;48.716;9.272;2023-05-24T00:47:30;5.25;;;2.33;;
44766;SDS011;30487;48.716;9.272;2023-05-24T00:49:56;4.80;;;2.00;;
44766;SDS011;30487;48.716;9.272;2023-05-24T00:52:21;5.75;;;2.35;;
44766;SDS011;30487;48.716;9.272;2023-05-24T00:54:47;6.90;;;2.25;;
44766;SDS011;30487;48.716;9.272;2023-05-24T00:57:13;5.40;;;2.25;;
44766;SDS011;30487;48.716;9.272;2023-05-24T00:59:39;4.15;;;2.15;;
44766;SDS011;30487;48.716;9.272;2023-05-24T01:02:05;6.43;;;2.28;;
44766;SDS011;30487;48.716;9.272;2023-05-24T01:04:31;11.63;;;2.83;;
44766;SDS011;30487;48.716;9.272;2023-05-24T01:10:08;6.35;;;2.20;;
44766;SDS011;30487;48.716;9.272;2023-05-24T01:13:19;6.72;;;2.25;;
44766;SDS011;30487;48.716;9.272;2023-05-24T01:16:04;7.15;;;2.30;;
44766;SDS011;30487;48.716;9.272;2023-05-24T01:18:38;5.88;;;2.10;;
44766;SDS011;30487;48.716;9.272;2023-05-24T01:29:02;9.68;;;2.47;;
44766;SDS011;30487;48.716;9.272;2023-05-24T01:31:29;7.32;;;2.42;;
44766;SDS011;30487;48.716;9.272;2023-05-24T01:33:54;11.80;;;2.65;;
44766;SDS011;30487;48.716;9.272;2023-05-24T01:36:20;10.45;;;2.38;;
44766;SDS011;30487;48.716;9.272;2023-05-24T01:38:46;8.93;;;2.42;;
44766;SDS011;30487;48.716;9.272;2023-05-24T01:41:14;9.18;;;2.58;;
44766;SDS011;30487;48.716;9.272;2023-05-24T01:43:56;9.70;;;2.45;;
44766;SDS011;30487;48.716;9.272;2023-05-24T01:46:39;6.85;;;2.17;;
44766;SDS011;30487;48.716;9.272;2023-05-24T01:49:25;6.57;;;2.20;;
44766;SDS011;30487;48.716;9.272;2023-05-24T01:51:56;5.85;;;2.03;;
44766;SDS011;30487;48.716;9.272;2023-05-24T01:56:54;7.78;;;2.28;;
44766;SDS011;30487;48.716;9.272;2023-05-24T01:59:21;6.65;;;2.00;;
44766;SDS011;30487;48.716;9.272;2023-05-24T02:01:48;8.00;;;1.98;;
44766;SDS011;30487;48.716;9.272;2023-05-24T02:04:15;8.45;;;2.40;;
44766;SDS011;30487;48.716;9.272;2023-05-24T02:06:41;8.57;;;2.42;;
44766;SDS011;30487;48.716;9.272;2023-05-24T02:09:06;9.75;;;2.50;;
44766;SDS011;30487;48.716;9.272;2023-05-24T02:11:32;8.85;;;2.33;;
44766;SDS011;30487;48.716;9.272;2023-05-24T02:13:57;11.27;;;2.83;;
44766;SDS011;30487;48.716;9.272;2023-05-24T02:16:23;11.38;;;2.65;;
44766;SDS011;30487;48.716;9.272;2023-05-24T02:18:50;7.13;;;2.17;;
44766;SDS011;30487;48.716;9.272;2023-05-24T02:21:16;9.60;;;2.50;;
44766;SDS011;30487;48.716;9.272;2023-05-24T02:23:42;6.97;;;2.22;;
44766;SDS011;30487;48.716;9.272;2023-05-24T02:26:08;9.18;;;2.78;;
44766;SDS011;30487;48.716;9.272;2023-05-24T02:28:36;12.82;;;2.50;;
44766;SDS011;30487;48.716;9.272;2023-05-24T02:31:01;7.75;;;2.42;;
44766;SDS011;30487;48.716;9.272;2023-05-24T02:33:27;7.88;;;2.50;;
44766;SDS011;30487;48.716;9.272;2023-05-24T02:35:54;9.48;;;2.70;;
44766;SDS011;30487;48.716;9.272;2023-05-24T02:38:20;7.40;;;2.30;;
44766;SDS011;30487;48.716;9.272;2023-05-24T02:40:46;12.00;;;2.38;;
44766;SDS011;30487;48.716;9.272;2023-05-24T02:43:11;7.55;;;2.63;;
44766;SDS011;30487;48.716;9.272;2023-05-24T02:45:37;9.32;;;2.58;;
44766;SDS011;30487;48.716;9.272;2023-05-24T02:48:02;10.48;;;2.58;;
44766;SDS011;30487;48.716;9.272;2023-05-24T02:50:28;7.35;;;2.70;;
44766;SDS011;30487;48.716;9.272;2023-05-24T02:52:54;9.85;;;2.67;;
44766;SDS011;30487;48.716;9.272;2023-05-24T02:55:19;10.18;;;3.08;;
44766;SDS011;30487;48.716;9.272;2023-05-24T02:57:45;8.63;;;2.80;;
44766;SDS011;30487;48.716;9.272;2023-05-24T03:00:12;10.70;;;2.63;;
44766;SDS011;30487;48.716;9.272;2023-05-24T03:02:38;7.80;;;2.70;;
44766;SDS011;30487;48.716;9.272;2023-05-24T03:05:05;9.40;;;3.05;;
44766;SDS011;30487;48.716;9.272;2023-05-24T03:07:31;10.30;;;2.83;;
44766;SDS011;30487;48.716;9.272;2023-05-24T03:09:57;7.63;;;2.83;;
44766;SDS011;30487;48.716;9.272;2023-05-24T03:12:23;11.48;;;2.78;;
44766;SDS011;30487;48.716;9.272;2023-05-24T03:14:48;8.32;;;2.60;;
44766;SDS011;30487;48.716;9.272;2023-05-24T03:17:14;8.80;;;2.60;;
44766;SDS011;30487;48.716;9.272;2023-05-24T03:19:40;10.90;;;2.67;;
44766;SDS011;30487;48.716;9.272;2023-05-24T03:22:06;10.20;;;2.85;;
44766;SDS011;30487;48.716;9.272;2023-05-24T03:24:31;7.40;;;2.53;;
44766;SDS011;30487;48.716;9.272;2023-05-24T03:26:58;8.00;;;2.83;;
44766;SDS011;30487;48.716;9.272;2023-05-24T03:29:23;6.75;;;2.35;;
44766;SDS011;30487;48.716;9.272;2023-05-24T03:31:49;6.97;;;2.30;;
44766;SDS011;30487;48.716;9.272;2023-05-24T03:34:15;8.80;;;2.60;;
44766;SDS011;30487;48.716;9.272;2023-05-24T03:36:40;7.88;;;2.33;;
44766;SDS011;30487;48.716;9.272;2023-05-24T03:39:06;9.68;;;2.50;;
44766;SDS011;30487;48.716;9.272;2023-05-24T03:41:32;11.10;;;2.78;;
44766;SDS011;30487;48.716;9.272;2023-05-24T03:43:58;8.57;;;2.75;;
44766;SDS011;30487;48.716;9.272;2023-05-24T03:46:23;8.80;;;2.95;;
44766;SDS011;30487;48.716;9.272;2023-05-24T03:48:49;10.15;;;3.05;;
44766;SDS011;30487;48.716;9.272;2023-05-24T03:51:15;7.95;;;3.30;;
44766;SDS011;30487;48.716;9.272;2023-05-24T03:53:41;9.13;;;3.10;;
44766;SDS011;30487;48.716;9.272;2023-05-24T03:56:06;8.50;;;3.00;;
44766;SDS011;30487;48.716;9.272;2023-05-24T03:58:32;9.93;;;2.90;;
44766;SDS011;30487;48.716;9.272;2023-05-24T04:00:57;12.05;;;3.05;;
44766;SDS011;30487;48.716;9.272;2023-05-24T04:03:23;7.18;;;2.70;;
44766;SDS011;30487;48.716;9.272;2023-05-24T04:05:53;10.27;;;3.28;;
44766;SDS011;30487;48.716;9.272;2023-05-24T04:08:19;11.48;;;2.70;;
44766;SDS011;30487;48.716;9.272;2023-05-24T04:10:45;12.32;;;3.30;;
44766;SDS011;30487;48.716;9.272;2023-05-24T04:13:10;12.00;;;3.30;;
44766;SDS011;30487;48.716;9.272;2023-05-24T04:15:36;8.70;;;3.13;;
44766;SDS011;30487;48.716;9.272;2023-05-24T04:18:02;10.15;;;3.05;;
44766;SDS011;30487;48.716;9.272;2023-05-24T04:20:27;14.38;;;3.47;;
44766;SDS011;30487;48.716;9.272;2023-05-24T04:22:53;10.63;;;3.10;;
44766;SDS011;30487;48.716;9.272;2023-05-24T04:25:20;11.82;;;3.95;;
44766;SDS011;30487;48.716;9.272;2023-05-24T04:27:46;9.57;;;2.95;;
44766;SDS011;30487;48.716;9.272;2023-05-24T04:30:14;9.73;;;2.80;;
44766;SDS011;30487;48.716;9.272;2023-05-24T04:32:41;9.98;;;3.20;;
44766;SDS011;30487;48.716;9.272;2023-05-24T04:35:10;15.93;;;3.33;;
44766;SDS011;30487;48.716;9.272;2023-05-24T04:37:35;10.68;;;2.85;;
44766;SDS011;30487;48.716;9.272;2023-05-24T04:40:01;9.82;;;3.17;;
44766;SDS011;30487;48.716;9.272;2023-05-24T04:42:28;7.20;;;2.58;;
44766;SDS011;30487;48.716;9.272;2023-05-24T04:44:55;8.25;;;2.83;;
44766;SDS011;30487;48.716;9.272;2023-05-24T04:47:21;8.18;;;3.33;;
44766;SDS011;30487;48.716;9.272;2023-05-24T04:49:48;11.20;;;3.33;;
44766;SDS011;30487;48.716;9.272;2023-05-24T04:52:14;10.20;;;3.22;;
44766;SDS011;30487;48.716;9.272;2023-05-24T04:54:40;10.57;;;2.72;;
44766;SDS011;30487;48.716;9.272;2023-05-24T04:57:06;12.82;;;3.03;;
44766;SDS011;30487;48.716;9.272;2023-05-24T04:59:32;9.93;;;3.00;;
44766;SDS011;30487;48.716;9.272;2023-05-24T05:01:58;14.65;;;3.60;;
44766;SDS011;30487;48.716;9.272;2023-05-24T05:04:24;12.65;;;3.35;;
44766;SDS011;30487;48.716;9.272;2023-05-24T05:06:49;12.18;;;3.45;;
44766;SDS011;30487;48.716;9.272;2023-05-24T05:09:15;9.18;;;3.17;;
44766;SDS011;30487;48.716;9.272;2023-05-24T05:11:41;9.07;;;3.13;;
44766;SDS011;30487;48.716;9.272;2023-05-24T05:14:07;12.13;;;3.15;;
44766;SDS011;30487;48.716;9.272;2023-05-24T05:16:36;10.88;;;3.38;;
44766;SDS011;30487;48.716;9.272;2023-05-24T05:19:02;11.90;;;3.22;;
44766;SDS011;30487;48.716;9.272;2023-05-24T05:21:29;10.85;;;3.20;;
44766;SDS011;30487;48.716;9.272;2023-05-24T05:23:57;10.25;;;2.88;;
44766;SDS011;30487;48.716;9.272;2023-05-24T05:26:26;12.82;;;3.35;;
44766;SDS011;30487;48.716;9.272;2023-05-24T05:28:52;12.07;;;3.40;;
44766;SDS011;30487;48.716;9.272;2023-05-24T05:31:20;12.05;;;3.40;;
44766;SDS011;30487;48.716;9.272;2023-05-24T05:33:46;10.98;;;3.05;;
44766;SDS011;30487;48.716;9.272;2023-05-24T05:36:12;9.10;;;3.20;;
44766;SDS011;30487;48.716;9.272;2023-05-24T05:38:38;11.15;;;3.15;;
44766;SDS011;30487;48.716;9.272;2023-05-24T05:41:03;8.20;;;3.05;;
44766;SDS011;30487;48.716;9.272;2023-05-24T05:43:30;9.73;;;2.85;;
44766;SDS011;30487;48.716;9.272;2023-05-24T05:45:55;12.77;;;2.90;;
44766;SDS011;30487;48.716;9.272;2023-05-24T05:48:21;10.38;;;2.78;;
44766;SDS011;30487;48.716;9.272;2023-05-24T05:50:47;10.70;;;3.38;;
44766;SDS011;30487;48.716;9.272;2023-05-24T05:53:13;10.85;;;3.65;;
44766;SDS011;30487;48.716;9.272;2023-05-24T05:55:39;15.15;;;4.10;;
44766;SDS011;30487;48.716;9.272;2023-05-24T05:58:05;6.57;;;2.83;;
44766;SDS011;30487;48.716;9.272;2023-05-24T06:00:30;13.90;;;3.40;;
44766;SDS011;30487;48.716;9.272;2023-05-24T06:02:56;10.93;;;3.22;;
44766;SDS011;30487;48.716;9.272;2023-05-24T06:05:22;9.27;;;2.88;;
44766;SDS011;30487;48.716;9.272;2023-05-24T06:07:47;14.70;;;3.00;;
44766;SDS011;30487;48.716;9.272;2023-05-24T06:10:13;11.35;;;3.17;;
44766;SDS011;30487;48.716;9.272;2023-05-24T06:12:39;11.25;;;2.95;;
44766;SDS011;30487;48.716;9.272;2023-05-24T06:15:05;8.38;;;2.85;;
44766;SDS011;30487;48.716;9.272;2023-05-24T06:17:33;11.85;;;3.42;;
44766;SDS011;30487;48.716;9.272;2023-05-24T06:19:59;12.50;;;3.35;;
44766;SDS011;30487;48.716;9.272;2023-05-24T06:22:25;8.88;;;2.90;;
44766;SDS011;30487;48.716;9.272;2023-05-24T06:24:53;8.25;;;3.20;;
44766;SDS011;30487;48.716;9.272;2023-05-24T06:27:19;12.32;;;3.33;;
44766;SDS011;30487;48.716;9.272;2023-05-24T06:29:45;11.10;;;3.45;;
44766;SDS011;30487;48.716;9.272;2023-05-24T06:32:11;12.52;;;3.03;;
44766;SDS011;30487;48.716;9.272;2023-05-24T06:34:36;10.20;;;3.03;;
44766;SDS011;30487;48.716;9.272;2023-05-24T06:37:02;10.73;;;3.20;;
44766;SDS011;30487;48.716;9.272;2023-05-24T06:39:28;10.23;;;3.33;;
44766;SDS011;30487;48.716;9.272;2023-05-24T06:41:53;11.38;;;3.15;;
44766;SDS011;30487;48.716;9.272;2023-05-24T06:44:19;10.35;;;3.22;;
44766;SDS011;30487;48.716;9.272;2023-05-24T06:46:46;9.40;;;3.53;;
44766;SDS011;30487;48.716;9.272;2023-05-24T06:49:12;8.50;;;2.97;;
44766;SDS011;30487;48.716;9.272;2023-05-24T06:51:37;9.70;;;2.80;;
44766;SDS011;30487;48.716;9.272;2023-05-24T06:54:03;12.70;;;3.00;;
44766;SDS011;30487;48.716;9.272;2023-05-24T06:56:28;9.05;;;3.75;;
44766;SDS011;30487;48.716;9.272;2023-05-24T06:58:54;10.48;;;3.00;;
44766;SDS011;30487;48.716;9.272;2023-05-24T07:01:20;8.65;;;3.30;;
44766;SDS011;30487;48.716;9.272;2023-05-24T07:03:47;10.82;;;3.33;;
44766;SDS011;30487;48.716;9.272;2023-05-24T07:06:12;12.50;;;3.17;;
44766;SDS011;30487;48.716;9.272;2023-05-24T07:08:39;12.77;;;3.70;;
44766;SDS011;30487;48.716;9.272;2023-05-24T07:11:06;7.80;;;3.20;;
44766;SDS011;30487;48.716;9.272;2023-05-24T07:13:32;13.27;;;3.95;;
44766;SDS011;30487;48.716;9.272;2023-05-24T07:15:57;12.68;;;3.80;;
44766;SDS011;30487;48.716;9.272;2023-05-24T07:18:23;9.80;;;3.03;;
44766;SDS011;30487;48.716;9.272;2023-05-24T07:20:49;13.77;;;3.83;;
44766;SDS011;30487;48.716;9.272;2023-05-24T07:23:14;11.18;;;3.25;;
44766;SDS011;30487;48.716;9.272;2023-05-24T07:25:40;10.80;;;3.15;;
44766;SDS011;30487;48.716;9.272;2023-05-24T07:28:05;10.30;;;2.83;;
44766;SDS011;30487;48.716;9.272;2023-05-24T07:30:31;12.60;;;3.38;;
44766;SDS011;30487;48.716;9.272;2023-05-24T07:32:57;9.35;;;3.00;;
44766;SDS011;30487;48.716;9.272;2023-05-24T07:35:23;9.15;;;2.83;;
44766;SDS011;30487;48.716;9.272;2023-05-24T07:37:49;7.00;;;2.70;;
44766;SDS011;30487;48.716;9.272;2023-05-24T07:40:15;8.93;;;3.28;;
44766;SDS011;30487;48.716;9.272;2023-05-24T07:42:41;11.38;;;3.10;;
44766;SDS011;30487;48.716;9.272;2023-05-24T07:45:07;9.23;;;2.88;;
44766;SDS011;30487;48.716;9.272;2023-05-24T07:47:34;10.80;;;2.90;;
44766;SDS011;30487;48.716;9.272;2023-05-24T07:50:01;10.00;;;3.42;;
44766;SDS011;30487;48.716;9.272;2023-05-24T07:52:27;15.90;;;3.17;;
44766;SDS011;30487;48.716;9.272;2023-05-24T07:54:53;12.90;;;3.47;;
44766;SDS011;30487;48.716;9.272;2023-05-24T07:57:19;14.68;;;3.35;;
44766;SDS011;30487;48.716;9.272;2023-05-24T07:59:45;9.75;;;3.13;;
44766;SDS011;30487;48.716;9.272;2023-05-24T08:02:11;11.95;;;3.38;;
44766;SDS011;30487;48.716;9.272;2023-05-24T08:04:37;13.02;;;3.28;;
44766;SDS011;30487;48.716;9.272;2023-05-24T08:07:04;11.50;;;3.58;;
44766;SDS011;30487;48.716;9.272;2023-05-24T08:09:30;16.75;;;3.45;;
44766;SDS011;30487;48.716;9.272;2023-05-24T08:11:59;10.23;;;2.92;;
44766;SDS011;30487;48.716;9.272;2023-05-24T08:14:27;12.82;;;3.20;;
44766;SDS011;30487;48.716;9.272;2023-05-24T08:16:53;11.93;;;3.22;;
44766;SDS011;30487;48.716;9.272;2023-05-24T08:19:19;7.10;;;2.80;;
44766;SDS011;30487;48.716;9.272;2023-05-24T08:21:45;9.50;;;3.00;;
44766;SDS011;30487;48.716;9.272;2023-05-24T08:24:10;12.82;;;2.97;;
44766;SDS011;30487;48.716;9.272;2023-05-24T08:26:36;10.23;;;3.30;;
44766;SDS011;30487;48.716;9.272;2023-05-24T08:29:02;13.38;;;3.67;;
44766;SDS011;30487;48.716;9.272;2023-05-24T08:31:28;12.88;;;3.30;;
44766;SDS011;30487;48.716;9.272;2023-05-24T08:33:56;13.13;;;2.85;;
44766;SDS011;30487;48.716;9.272;2023-05-24T08:36:22;8.57;;;3.00;;
44766;SDS011;30487;48.716;9.272;2023-05-24T08:38:48;11.55;;;3.38;;
44766;SDS011;30487;48.716;9.272;2023-05-24T08:41:13;9.45;;;2.60;;
44766;SDS011;30487;48.716;9.272;2023-05-24T08:43:39;9.50;;;2.83;;
44766;SDS011;30487;48.716;9.272;2023-05-24T08:46:07;14.45;;;3.70;;
44766;SDS011;30487;48.716;9.272;2023-05-24T08:48:36;12.52;;;3.60;;
44766;SDS011;30487;48.716;9.272;2023-05-24T08:51:13;10.60;;;3.28;;
44766;SDS011;30487;48.716;9.272;2023-05-24T08:53:40;8.00;;;3.13;;
44766;SDS011;30487;48.716;9.272;2023-05-24T08:56:12;11.73;;;3.20;;
44766;SDS011;30487;48.716;9.272;2023-05-24T08:58:41;10.93;;;2.85;;
44766;SDS011;30487;48.716;9.272;2023-05-24T09:01:07;12.80;;;3.20;;
44766;SDS011;30487;48.716;9.272;2023-05-24T09:03:35;8.75;;;2.88;;
44766;SDS011;30487;48.716;9.272;2023-05-24T09:06:01;9.63;;;3.75;;
44766;SDS011;30487;48.716;9.272;2023-05-24T09:08:27;13.05;;;3.63;;
44766;SDS011;30487;48.716;9.272;2023-05-24T09:10:54;15.55;;;3.47;;
44766;SDS011;30487;48.716;9.272;2023-05-24T09:13:21;11.70;;;3.40;;
44766;SDS011;30487;48.716;9.272;2023-05-24T09:15:48;12.38;;;3.20;;
44766;SDS011;30487;48.716;9.272;2023-05-24T09:18:15;9.57;;;2.55;;
44766;SDS011;30487;48.716;9.272;2023-05-24T09:20:40;12.02;;;2.95;;
44766;SDS011;30487;48.716;9.272;2023-05-24T09:23:06;11.70;;;3.53;;
44766;SDS011;30487;48.716;9.272;2023-05-24T09:25:35;10.05;;;3.00;;
44766;SDS011;30487;48.716;9.272;2023-05-24T09:28:07;8.07;;;2.40;;
44766;SDS011;30487;48.716;9.272;2023-05-24T09:30:35;9.52;;;2.95;;
44766;SDS011;30487;48.716;9.272;2023-05-24T09:33:00;12.32;;;3.05;;
44766;SDS011;30487;48.716;9.272;2023-05-24T09:35:27;8.65;;;3.17;;
44766;SDS011;30487;48.716;9.272;2023-05-24T09:37:54;8.90;;;2.65;;
44766;SDS011;30487;48.716;9.272;2023-05-24T09:40:26;9.10;;;3.30;;
44766;SDS011;30487;48.716;9.272;2023-05-24T09:43:02;9.15;;;2.97;;
44766;SDS011;30487;48.716;9.272;2023-05-24T09:45:41;8.43;;;2.88;;
44766;SDS011;30487;48.716;9.272;2023-05-24T09:48:11;10.43;;;3.00;;
44766;SDS011;30487;48.716;9.272;2023-05-24T09:50:39;8.63;;;2.97;;
44766;SDS011;30487;48.716;9.272;2023-05-24T09:53:05;13.57;;;3.00;;
44766;SDS011;30487;48.716;9.272;2023-05-24T09:55:34;13.07;;;3.35;;
44766;SDS011;30487;48.716;9.272;2023-05-24T09:58:02;9.10;;;2.90;;
44766;SDS011;30487;48.716;9.272;2023-05-24T10:00:33;11.68;;;2.90;;
44766;SDS011;30487;48.716;9.272;2023-05-24T10:03:04;10.25;;;2.72;;
44766;SDS011;30487;48.716;9.272;2023-05-24T10:05:37;12.70;;;2.88;;
44766;SDS011;30487;48.716;9.272;2023-05-24T10:08:05;8.38;;;3.05;;
44766;SDS011;30487;48.716;9.272;2023-05-24T10:10:33;7.97;;;2.83;;
44766;SDS011;30487;48.716;9.272;2023-05-24T10:12:59;11.60;;;3.15;;
44766;SDS011;30487;48.716;9.272;2023-05-24T10:15:26;12.15;;;3.25;;
44766;SDS011;30487;48.716;9.272;2023-05-24T10:17:55;11.18;;;3.13;;
44766;SDS011;30487;48.716;9.272;2023-05-24T10:20:22;16.30;;;3.75;;
44766;SDS011;30487;48.716;9.272;2023-05-24T10:22:50;13.00;;;3.95;;
44766;SDS011;30487;48.716;9.272;2023-05-24T10:25:22;14.32;;;3.47;;
44766;SDS011;30487;48.716;9.272;2023-05-24T10:27:52;12.05;;;3.60;;
44766;SDS011;30487;48.716;9.272;2023-05-24T10:30:38;10.88;;;3.35;;
44766;SDS011;30487;48.716;9.272;2023-05-24T10:33:11;9.45;;;2.80;;
44766;SDS011;30487;48.716;9.272;2023-05-24T10:35:38;9.57;;;3.05;;
44766;SDS011;30487;48.716;9.272;2023-05-24T10:38:05;13.75;;;3.47;;
44766;SDS011;30487;48.716;9.272;2023-05-24T10:40:32;11.02;;;3.97;;
44766;SDS011;30487;48.716;9.272;2023-05-24T10:42:58;12.82;;;3.53;;
44766;SDS011;30487;48.716;9.272;2023-05-24T10:47:49;11.55;;;3.25;;
44766;SDS011;30487;48.716;9.272;2023-05-24T10:50:19;11.88;;;3.40;;
44766;SDS011;30487;48.716;9.272;2023-05-24T10:52:47;10.57;;;2.95;;
44766;SDS011;30487;48.716;9.272;2023-05-24T10:55:13;12.05;;;3.08;;
44766;SDS011;30487;48.716;9.272;2023-05-24T10:57:39;12.07;;;3.55;;
44766;SDS011;30487;48.716;9.272;2023-05-24T11:05:34;15.55;;;3.47;;
44766;SDS011;30487;48.716;9.272;2023-05-24T11:08:13;10.02;;;3.30;;
44766;SDS011;30487;48.716;9.272;2023-05-24T11:10:38;10.52;;;3.50;;
44766;SDS011;30487;48.716;9.272;2023-05-24T11:13:08;9.60;;;3.05;;
44766;SDS011;30487;48.716;9.272;2023-05-24T11:15:34;10.07;;;3.42;;
44766;SDS011;30487;48.716;9.272;2023-05-24T11:20:38;9.90;;;3.55;;
44766;SDS011;30487;48.716;9.272;2023-05-24T11:23:05;11.65;;;2.95;;
44766;SDS011;30487;48.716;9.272;2023-05-24T11:25:35;8.00;;;2.92;;
44766;SDS011;30487;48.716;9.272;2023-05-24T11:28:07;15.50;;;3.90;;
44766;SDS011;30487;48.716;9.272;2023-05-24T11:30:45;13.40;;;3.38;;
44766;SDS011;30487;48.716;9.272;2023-05-24T11:33:18;11.90;;;3.20;;
44766;SDS011;30487;48.716;9.272;2023-05-24T11:35:46;7.70;;;2.95;;
44766;SDS011;30487;48.716;9.272;2023-05-24T11:38:16;9.48;;;3.15;;
44766;SDS011;30487;48.716;9.272;2023-05-24T11:40:43;12.55;;;3.13;;
44766;SDS011;30487;48.716;9.272;2023-05-24T11:43:10;10.82;;;3.30;;
44766;SDS011;30487;48.716;9.272;2023-05-24T11:45:39;14.52;;;3.63;;
44766;SDS011;30487;48.716;9.272;2023-05-24T11:48:07;9.48;;;2.95;;
44766;SDS011;30487;48.716;9.272;2023-05-24T11:50:36;12.50;;;3.25;;
44766;SDS011;30487;48.716;9.272;2023-05-24T11:53:09;14.93;;;3.50;;
44766;SDS011;30487;48.716;9.272;2023-05-24T11:55:39;10.88;;;3.55;;
44766;SDS011;30487;48.716;9.272;2023-05-24T11:58:06;13.98;;;3.13;;
44766;SDS011;30487;48.716;9.272;2023-05-24T12:00:38;9.68;;;3.25;;
44766;SDS011;30487;48.716;9.272;2023-05-24T12:03:04;8.88;;;2.58;;
44766;SDS011;30487;48.716;9.272;2023-05-24T12:05:32;10.75;;;2.90;;
44766;SDS011;30487;48.716;9.272;2023-05-24T12:08:05;11.20;;;3.25;;
44766;SDS011;30487;48.716;9.272;2023-05-24T12:10:35;7.55;;;2.53;;
44766;SDS011;30487;48.716;9.272;2023-05-24T12:13:02;10.30;;;3.08;;
44766;SDS011;30487;48.716;9.272;2023-05-24T12:15:29;9.52;;;2.90;;
44766;SDS011;30487;48.716;9.272;2023-05-24T12:17:55;11.95;;;3.20;;
44766;SDS011;30487;48.716;9.272;2023-05-24T12:20:27;11.38;;;3.00;;
44766;SDS011;30487;48.716;9.272;2023-05-24T12:22:53;8.70;;;3.00;;
44766;SDS011;30487;48.716;9.272;2023-05-24T12:25:21;11.00;;;2.85;;
44766;SDS011;30487;48.716;9.272;2023-05-24T12:27:53;9.18;;;2.75;;
44766;SDS011;30487;48.716;9.272;2023-05-24T12:30:24;10.18;;;3.00;;
44766;SDS011;30487;48.716;9.272;2023-05-24T12:32:50;11.40;;;2.78;;
44766;SDS011;30487;48.716;9.272;2023-05-24T12:35:20;7.95;;;2.65;;
44766;SDS011;30487;48.716;9.272;2023-05-24T12:37:46;8.13;;;2.60;;
44766;SDS011;30487;48.716;9.272;2023-05-24T12:40:13;9.50;;;2.78;;
44766;SDS011;30487;48.716;9.272;2023-05-24T12:42:44;10.13;;;2.42;;
44766;SDS011;30487;48.716;9.272;2023-05-24T12:45:21;10.90;;;2.60;;
44766;SDS011;30487;48.716;9.272;2023-05-24T12:47:55;8.75;;;2.58;;
44766;SDS011;30487;48.716;9.272;2023-05-24T12:50:22;9.10;;;3.05;;
44766;SDS011;30487;48.716;9.272;2023-05-24T12:52:49;8.30;;;2.60;;
44766;SDS011;30487;48.716;9.272;2023-05-24T12:55:21;8.25;;;2.65;;
44766;SDS011;30487;48.716;9.272;2023-05-24T12:57:49;7.75;;;2.80;;
44766;SDS011;30487;48.716;9.272;2023-05-24T13:00:18;7.70;;;2.40;;
44766;SDS011;30487;48.716;9.272;2023-05-24T13:02:45;9.57;;;2.75;;
44766;SDS011;30487;48.716;9.272;2023-05-24T13:05:11;8.07;;;2.60;;
44766;SDS011;30487;48.716;9.272;2023-05-24T13:07:37;9.40;;;2.80;;
44766;SDS011;30487;48.716;9.272;2023-05-24T13:10:04;12.25;;;2.38;;
44766;SDS011;30487;48.716;9.272;2023-05-24T13:12:30;6.40;;;2.25;;
44766;SDS011;30487;48.716;9.272;2023-05-24T13:14:57;8.88;;;2.70;;
44766;SDS011;30487;48.716;9.272;2023-05-24T13:17:23;9.40;;;2.40;;
44766;SDS011;30487;48.716;9.272;2023-05-24T13:19:49;12.75;;;2.38;;
44766;SDS011;30487;48.716;9.272;2023-05-24T13:22:15;8.02;;;2.20;;
44766;SDS011;30487;48.716;9.272;2023-05-24T13:24:40;6.93;;;2.00;;
44766;SDS011;30487;48.716;9.272;2023-05-24T13:27:07;7.80;;;2.40;;
44766;SDS011;30487;48.716;9.272;2023-05-24T13:29:32;8.90;;;2.33;;
44766;SDS011;30487;48.716;9.272;2023-05-24T13:31:58;9.25;;;2.92;;
44766;SDS011;30487;48.716;9.272;2023-05-24T13:34:23;8.25;;;2.65;;
44766;SDS011;30487;48.716;9.272;2023-05-24T13:36:51;5.57;;;2.25;;
44766;SDS011;30487;48.716;9.272;2023-05-24T13:39:18;5.35;;;1.88;;
44766;SDS011;30487;48.716;9.272;2023-05-24T13:41:47;8.60;;;2.50;;
44766;SDS011;30487;48.716;9.272;2023-05-24T13:44:13;7.18;;;1.95;;
44766;SDS011;30487;48.716;9.272;2023-05-24T13:46:40;5.13;;;2.30;;
44766;SDS011;30487;48.716;9.272;2023-05-24T13:49:07;8.50;;;2.28;;
44766;SDS011;30487;48.716;9.272;2023-05-24T13:51:33;4.97;;;2.05;;
44766;SDS011;30487;48.716;9.272;2023-05-24T13:53:59;5.70;;;2.10;;
44766;SDS011;30487;48.716;9.272;2023-05-24T13:56:25;11.30;;;2.53;;
44766;SDS011;30487;48.716;9.272;2023-05-24T13:58:56;9.65;;;2.60;;
44766;SDS011;30487;48.716;9.272;2023-05-24T14:01:23;8.50;;;2.58;;
44766;SDS011;30487;48.716;9.272;2023-05-24T14:03:49;11.45;;;2.47;;
44766;SDS011;30487;48.716;9.272;2023-05-24T14:06:16;8.98;;;2.75;;
44766;SDS011;30487;48.716;9.272;2023-05-24T14:08:41;6.13;;;2.45;;
44766;SDS011;30487;48.716;9.272;2023-05-24T14:11:07;8.20;;;2.22;;
44766;SDS011;30487;48.716;9.272;2023-05-24T14:13:33;6.70;;;2.45;;
44766;SDS011;30487;48.716;9.272;2023-05-24T14:15:58;11.35;;;3.20;;
44766;SDS011;30487;48.716;9.272;2023-05-24T14:18:24;7.10;;;2.30;;
44766;SDS011;30487;48.716;9.272;2023-05-24T14:20:50;6.57;;;2.20;;
44766;SDS011;30487;48.716;9.272;2023-05-24T14:23:16;9.35;;;2.30;;
44766;SDS011;30487;48.716;9.272;2023-05-24T14:25:42;9.27;;;2.40;;
44766;SDS011;30487;48.716;9.272;2023-05-24T14:28:10;8.30;;;1.98;;
44766;SDS011;30487;48.716;9.272;2023-05-24T14:30:36;9.38;;;2.50;;
44766;SDS011;30487;48.716;9.272;2023-05-24T14:33:02;8.90;;;2.50;;
44766;SDS011;30487;48.716;9.272;2023-05-24T14:35:30;8.40;;;2.55;;
44766;SDS011;30487;48.716;9.272;2023-05-24T14:38:02;7.60;;;2.60;;
44766;SDS011;30487;48.716;9.272;2023-05-24T14:40:28;7.97;;;2.42;;
44766;SDS011;30487;48.716;9.272;2023-05-24T14:42:54;11.10;;;2.65;;
44766;SDS011;30487;48.716;9.272;2023-05-24T14:45:19;6.45;;;2.25;;
44766;SDS011;30487;48.716;9.272;2023-05-24T14:47:45;9.75;;;2.30;;
44766;SDS011;30487;48.716;9.272;2023-05-24T14:50:11;9.50;;;2.55;;
44766;SDS011;30487;48.716;9.272;2023-05-24T14:52:36;7.35;;;2.47;;
44766;SDS011;30487;48.716;9.272;2023-05-24T14:55:02;6.25;;;2.58;;
44766;SDS011;30487;48.716;9.272;2023-05-24T14:57:28;7.75;;;2.22;;
44766;SDS011;30487;48.716;9.272;2023-05-24T14:59:54;5.75;;;2.00;;
44766;SDS011;30487;48.716;9.272;2023-05-24T15:02:20;7.65;;;2.15;;
44766;SDS011;30487;48.716;9.272;2023-05-24T15:04:46;9.32;;;2.25;;